sensor_id;sensor_type;location;lat;lon;timestamp;pressure;altitude;pressure_sealevel;temperature;humidity
18918;BME280;9591;52.742;13.650;2023-11-19T00:02:06;100997.78;;;20.52;29.50
18918;BME280;9591;52.742;13.650;2023-11-19T00:04:56;100999.50;;;20.66;29.47
18918;BME280;9591;52.742;13.650;2023-11-19T00:07:50;100982.38;;;20.80;29.07
18918;BME280;9591;52.742;13.650;2023-11-19T00:10:43;100966.22;;;20.80;28.97
18918;BME280;9591;52.742;13.650;2023-11-19T00:13:34;100959.56;;;20.60;29.41
18918;BME280;9591;52.742;13.650;2023-11-19T00:16:44;100947.94;;;20.47;29.62
18918;BME280;9591;52.742;13.650;2023-11-19T00:19:46;100938.22;;;20.32;29.64
18918;BME280;9591;52.742;13.650;2023-11-19T00:22:51;100941.88;;;20.30;29.85
18918;BME280;9591;52.742;13.650;2023-11-19T00:25:43;100935.28;;;20.09;29.96
18918;BME280;9591;52.742;13.650;2023-11-19T00:28:39;100938.94;;;19.42;30.67
18918;BME280;9591;52.742;13.650;2023-11-19T00:31:31;100928.78;;;20.39;29.55
18918;BME280;9591;52.742;13.650;2023-11-19T00:34:25;100928.28;;;19.81;30.19
18918;BME280;9591;52.742;13.650;2023-11-19T00:37:17;100941.09;;;20.92;29.13
18918;BME280;9591;52.742;13.650;2023-11-19T00:40:08;100927.44;;;20.06;30.39
18918;BME280;9591;52.742;13.650;2023-11-19T00:42:59;100925.78;;;20.43;29.94
18918;BME280;9591;52.742;13.650;2023-11-19T00:45:53;100900.13;;;20.38;29.88
18918;BME280;9591;52.742;13.650;2023-11-19T00:48:42;100897.44;;;20.38;29.79
18918;BME280;9591;52.742;13.650;2023-11-19T00:51:41;100889.19;;;20.66;29.46
18918;BME280;9591;52.742;13.650;2023-11-19T00:54:35;100886.13;;;19.82;30.42
18918;BME280;9591;52.742;13.650;2023-11-19T00:57:25;100876.06;;;20.61;29.63
18918;BME280;9591;52.742;13.650;2023-11-19T01:00:18;100866.03;;;20.64;29.57
18918;BME280;9591;52.742;13.650;2023-11-19T01:03:12;100863.84;;;21.05;29.08
18918;BME280;9591;52.742;13.650;2023-11-19T01:06:07;100849.38;;;20.58;29.66
18918;BME280;9591;52.742;13.650;2023-11-19T01:09:02;100834.19;;;20.32;29.83
18918;BME280;9591;52.742;13.650;2023-11-19T01:12:00;100821.94;;;20.28;29.96
18918;BME280;9591;52.742;13.650;2023-11-19T01:14:51;100821.13;;;21.01;29.05
18918;BME280;9591;52.742;13.650;2023-11-19T01:17:40;100827.00;;;20.07;30.02
18918;BME280;9591;52.742;13.650;2023-11-19T01:20:32;100805.44;;;20.71;28.96
18918;BME280;9591;52.742;13.650;2023-11-19T01:23:27;100792.59;;;20.98;29.00
18918;BME280;9591;52.742;13.650;2023-11-19T01:26:15;100781.53;;;20.66;29.29
18918;BME280;9591;52.742;13.650;2023-11-19T01:29:08;100787.63;;;20.32;29.85
18918;BME280;9591;52.742;13.650;2023-11-19T01:31:55;100782.19;;;20.70;29.47
18918;BME280;9591;52.742;13.650;2023-11-19T01:34:52;100765.22;;;20.56;29.64
18918;BME280;9591;52.742;13.650;2023-11-19T01:37:41;100760.38;;;19.87;30.56
18918;BME280;9591;52.742;13.650;2023-11-19T01:40:28;100766.59;;;19.75;31.12
18918;BME280;9591;52.742;13.650;2023-11-19T01:46:14;100749.97;;;20.44;29.70
18918;BME280;9591;52.742;13.650;2023-11-19T01:49:04;100738.44;;;19.93;30.48
18918;BME280;9591;52.742;13.650;2023-11-19T01:52:00;100722.06;;;20.58;29.73
18918;BME280;9591;52.742;13.650;2023-11-19T01:54:52;100723.22;;;20.17;30.18
18918;BME280;9591;52.742;13.650;2023-11-19T01:57:40;100698.44;;;19.88;30.61
18918;BME280;9591;52.742;13.650;2023-11-19T02:00:28;100691.44;;;19.48;30.92
18918;BME280;9591;52.742;13.650;2023-11-19T02:03:21;100682.22;;;20.39;29.81
18918;BME280;9591;52.742;13.650;2023-11-19T02:06:09;100688.22;;;20.30;29.79
18918;BME280;9591;52.742;13.650;2023-11-19T02:08:58;100694.25;;;20.34;29.82
18918;BME280;9591;52.742;13.650;2023-11-19T02:11:45;100677.00;;;20.49;29.59
18918;BME280;9591;52.742;13.650;2023-11-19T02:14:35;100658.22;;;20.60;29.45
18918;BME280;9591;52.742;13.650;2023-11-19T02:17:27;100646.72;;;20.58;29.39
18918;BME280;9591;52.742;13.650;2023-11-19T02:20:27;100639.06;;;21.11;28.69
18918;BME280;9591;52.742;13.650;2023-11-19T02:23:13;100614.34;;;21.17;28.72
18918;BME280;9591;52.742;13.650;2023-11-19T02:26:10;100610.66;;;20.60;29.05
18918;BME280;9591;52.742;13.650;2023-11-19T02:29:06;100618.50;;;21.10;28.68
18918;BME280;9591;52.742;13.650;2023-11-19T02:31:53;100618.72;;;20.60;29.01
18918;BME280;9591;52.742;13.650;2023-11-19T02:34:46;100618.34;;;21.00;28.71
18918;BME280;9591;52.742;13.650;2023-11-19T02:37:35;100601.97;;;20.57;29.23
18918;BME280;9591;52.742;13.650;2023-11-19T02:40:31;100586.00;;;20.43;29.43
18918;BME280;9591;52.742;13.650;2023-11-19T02:43:18;100572.72;;;20.28;30.16
18918;BME280;9591;52.742;13.650;2023-11-19T02:46:12;100553.31;;;20.60;29.20
18918;BME280;9591;52.742;13.650;2023-11-19T02:49:02;100539.09;;;20.47;29.69
18918;BME280;9591;52.742;13.650;2023-11-19T02:51:52;100546.88;;;20.74;29.37
18918;BME280;9591;52.742;13.650;2023-11-19T02:54:42;100542.84;;;20.20;29.77
18918;BME280;9591;52.742;13.650;2023-11-19T02:57:31;100548.78;;;20.13;30.27
18918;BME280;9591;52.742;13.650;2023-11-19T03:00:19;100548.25;;;21.02;29.08
18918;BME280;9591;52.742;13.650;2023-11-19T03:03:12;100524.44;;;20.27;30.04
18918;BME280;9591;52.742;13.650;2023-11-19T03:06:16;100525.34;;;20.74;29.37
18918;BME280;9591;52.742;13.650;2023-11-19T03:09:04;100505.16;;;20.68;29.47
18918;BME280;9591;52.742;13.650;2023-11-19T03:11:56;100493.16;;;20.02;30.18
18918;BME280;9591;52.742;13.650;2023-11-19T03:14:43;100495.78;;;20.15;30.07
18918;BME280;9591;52.742;13.650;2023-11-19T03:17:34;100496.72;;;21.17;28.75
18918;BME280;9591;52.742;13.650;2023-11-19T03:20:22;100499.94;;;20.43;29.62
18918;BME280;9591;52.742;13.650;2023-11-19T03:23:13;100503.38;;;19.86;30.30
18918;BME280;9591;52.742;13.650;2023-11-19T03:26:03;100503.22;;;19.51;31.07
18918;BME280;9591;52.742;13.650;2023-11-19T03:28:57;100500.25;;;20.73;29.51
18918;BME280;9591;52.742;13.650;2023-11-19T03:31:47;100493.88;;;20.63;29.53
18918;BME280;9591;52.742;13.650;2023-11-19T03:34:36;100483.81;;;20.43;29.62
18918;BME280;9591;52.742;13.650;2023-11-19T03:37:26;100482.53;;;20.71;29.50
18918;BME280;9591;52.742;13.650;2023-11-19T03:40:15;100460.44;;;20.08;30.40
18918;BME280;9591;52.742;13.650;2023-11-19T03:43:06;100442.25;;;19.77;30.77
18918;BME280;9591;52.742;13.650;2023-11-19T03:45:59;100427.50;;;20.75;29.77
18918;BME280;9591;52.742;13.650;2023-11-19T03:48:49;100425.50;;;21.10;29.37
18918;BME280;9591;52.742;13.650;2023-11-19T03:51:37;100413.88;;;20.87;29.79
18918;BME280;9591;52.742;13.650;2023-11-19T03:54:25;100406.88;;;19.94;30.90
18918;BME280;9591;52.742;13.650;2023-11-19T03:57:14;100398.72;;;20.53;30.57
18918;BME280;9591;52.742;13.650;2023-11-19T04:00:03;100395.41;;;20.03;31.15
18918;BME280;9591;52.742;13.650;2023-11-19T04:03:02;100400.00;;;20.25;30.96
18918;BME280;9591;52.742;13.650;2023-11-19T04:05:50;100379.41;;;20.81;30.17
18918;BME280;9591;52.742;13.650;2023-11-19T04:08:37;100381.28;;;20.23;30.80
18918;BME280;9591;52.742;13.650;2023-11-19T04:11:31;100358.00;;;20.46;30.52
18918;BME280;9591;52.742;13.650;2023-11-19T04:14:23;100368.94;;;20.21;31.20
18918;BME280;9591;52.742;13.650;2023-11-19T04:17:15;100342.84;;;20.68;30.45
18918;BME280;9591;52.742;13.650;2023-11-19T04:20:03;100327.13;;;21.06;29.83
18918;BME280;9591;52.742;13.650;2023-11-19T04:22:51;100328.78;;;20.53;30.62
18918;BME280;9591;52.742;13.650;2023-11-19T04:25:40;100314.38;;;20.65;30.54
18918;BME280;9591;52.742;13.650;2023-11-19T04:28:33;100310.78;;;19.62;32.31
18918;BME280;9591;52.742;13.650;2023-11-19T04:31:29;100301.25;;;19.11;32.96
18918;BME280;9591;52.742;13.650;2023-11-19T04:34:18;100295.94;;;19.46;32.60
18918;BME280;9591;52.742;13.650;2023-11-19T04:37:05;100293.31;;;20.25;31.18
18918;BME280;9591;52.742;13.650;2023-11-19T04:39:58;100305.56;;;20.63;30.70
18918;BME280;9591;52.742;13.650;2023-11-19T04:42:53;100306.53;;;20.40;30.94
18918;BME280;9591;52.742;13.650;2023-11-19T04:45:44;100254.84;;;20.47;30.55
18918;BME280;9591;52.742;13.650;2023-11-19T04:48:31;100291.06;;;19.97;31.75
18918;BME280;9591;52.742;13.650;2023-11-19T04:51:27;100281.81;;;21.11;29.93
18918;BME280;9591;52.742;13.650;2023-11-19T04:54:15;100266.53;;;20.80;30.51
18918;BME280;9591;52.742;13.650;2023-11-19T04:57:04;100259.75;;;20.85;30.37
18918;BME280;9591;52.742;13.650;2023-11-19T04:59:53;100263.34;;;20.08;31.77
18918;BME280;9591;52.742;13.650;2023-11-19T05:02:44;100257.03;;;20.97;30.62
18918;BME280;9591;52.742;13.650;2023-11-19T05:05:43;100241.59;;;20.00;32.09
18918;BME280;9591;52.742;13.650;2023-11-19T05:08:35;100215.59;;;20.00;32.08
18918;BME280;9591;52.742;13.650;2023-11-19T05:11:22;100195.19;;;20.09;32.14
18918;BME280;9591;52.742;13.650;2023-11-19T05:14:12;100188.34;;;20.16;32.02
18918;BME280;9591;52.742;13.650;2023-11-19T05:17:03;100197.84;;;19.18;33.63
18918;BME280;9591;52.742;13.650;2023-11-19T05:19:53;100208.75;;;20.07;32.51
18918;BME280;9591;52.742;13.650;2023-11-19T05:22:40;100195.06;;;20.44;31.72
18918;BME280;9591;52.742;13.650;2023-11-19T05:25:28;100190.56;;;19.31;33.67
18918;BME280;9591;52.742;13.650;2023-11-19T05:28:15;100185.22;;;20.65;31.73
18918;BME280;9591;52.742;13.650;2023-11-19T05:31:05;100161.53;;;20.59;31.58
18918;BME280;9591;52.742;13.650;2023-11-19T05:33:57;100154.97;;;20.41;32.15
18918;BME280;9591;52.742;13.650;2023-11-19T05:36:47;100152.69;;;20.68;31.81
18918;BME280;9591;52.742;13.650;2023-11-19T05:39:38;100157.59;;;20.63;31.87
18918;BME280;9591;52.742;13.650;2023-11-19T05:42:27;100153.91;;;19.65;33.33
18918;BME280;9591;52.742;13.650;2023-11-19T05:45:14;100140.22;;;20.02;32.91
18918;BME280;9591;52.742;13.650;2023-11-19T05:48:02;100135.41;;;20.39;32.17
18918;BME280;9591;52.742;13.650;2023-11-19T05:50:58;100134.97;;;20.66;32.04
18918;BME280;9591;52.742;13.650;2023-11-19T05:53:49;100124.88;;;20.36;32.40
18918;BME280;9591;52.742;13.650;2023-11-19T05:56:39;100084.09;;;20.83;31.45
18918;BME280;9591;52.742;13.650;2023-11-19T05:59:28;100112.84;;;20.08;32.85
18918;BME280;9591;52.742;13.650;2023-11-19T06:02:20;100144.38;;;19.04;34.37
18918;BME280;9591;52.742;13.650;2023-11-19T06:05:08;100136.75;;;20.22;33.11
18918;BME280;9591;52.742;13.650;2023-11-19T06:07:57;100141.47;;;19.86;33.45
18918;BME280;9591;52.742;13.650;2023-11-19T06:10:49;100137.91;;;21.15;31.37
18918;BME280;9591;52.742;13.650;2023-11-19T06:13:37;100127.88;;;21.38;31.21
18918;BME280;9591;52.742;13.650;2023-11-19T06:16:25;100120.78;;;21.37;31.06
18918;BME280;9591;52.742;13.650;2023-11-19T06:19:13;100125.75;;;21.63;30.68
18918;BME280;9591;52.742;13.650;2023-11-19T06:22:00;100127.44;;;21.64;30.67
18918;BME280;9591;52.742;13.650;2023-11-19T06:24:47;100124.53;;;21.86;30.33
18918;BME280;9591;52.742;13.650;2023-11-19T06:27:41;100120.47;;;22.01;30.24
18918;BME280;9591;52.742;13.650;2023-11-19T06:30:30;100106.34;;;21.38;31.12
18918;BME280;9591;52.742;13.650;2023-11-19T06:33:19;100108.22;;;21.06;31.46
18918;BME280;9591;52.742;13.650;2023-11-19T06:36:08;100103.88;;;21.14;31.56
18918;BME280;9591;52.742;13.650;2023-11-19T06:38:55;100073.63;;;21.22;31.69
18918;BME280;9591;52.742;13.650;2023-11-19T06:41:45;100061.47;;;20.86;31.89
18918;BME280;9591;52.742;13.650;2023-11-19T06:44:34;100048.59;;;20.48;32.61
18918;BME280;9591;52.742;13.650;2023-11-19T06:47:20;100055.59;;;20.71;31.75
18918;BME280;9591;52.742;13.650;2023-11-19T06:50:07;100052.00;;;21.33;31.51
18918;BME280;9591;52.742;13.650;2023-11-19T06:52:59;100049.47;;;20.69;32.40
18918;BME280;9591;52.742;13.650;2023-11-19T06:55:49;100041.59;;;20.56;32.70
18918;BME280;9591;52.742;13.650;2023-11-19T06:58:38;100003.50;;;20.08;32.97
18918;BME280;9591;52.742;13.650;2023-11-19T07:01:34;100033.69;;;21.06;32.23
18918;BME280;9591;52.742;13.650;2023-11-19T07:04:58;100031.19;;;21.35;31.83
18918;BME280;9591;52.742;13.650;2023-11-19T07:07:50;100037.81;;;21.71;31.22
18918;BME280;9591;52.742;13.650;2023-11-19T07:10:40;100033.44;;;21.30;31.86
18918;BME280;9591;52.742;13.650;2023-11-19T07:13:29;100039.91;;;20.76;32.74
18918;BME280;9591;52.742;13.650;2023-11-19T07:16:16;100046.31;;;20.64;32.91
18918;BME280;9591;52.742;13.650;2023-11-19T07:19:11;100042.97;;;20.51;33.23
18918;BME280;9591;52.742;13.650;2023-11-19T07:21:57;100048.78;;;21.39;32.00
18918;BME280;9591;52.742;13.650;2023-11-19T07:24:49;100038.81;;;21.61;31.70
18918;BME280;9591;52.742;13.650;2023-11-19T07:27:37;100033.53;;;21.49;31.71
18918;BME280;9591;52.742;13.650;2023-11-19T07:30:32;100033.47;;;21.40;31.83
18918;BME280;9591;52.742;13.650;2023-11-19T07:33:21;100026.34;;;21.08;32.46
18918;BME280;9591;52.742;13.650;2023-11-19T07:36:13;100037.63;;;20.40;33.46
18918;BME280;9591;52.742;13.650;2023-11-19T07:39:03;100026.75;;;21.04;32.45
18918;BME280;9591;52.742;13.650;2023-11-19T07:41:50;100022.94;;;21.27;32.29
18918;BME280;9591;52.742;13.650;2023-11-19T07:44:40;100030.34;;;20.93;32.67
18918;BME280;9591;52.742;13.650;2023-11-19T07:47:28;100027.78;;;20.91;32.67
18918;BME280;9591;52.742;13.650;2023-11-19T07:50:17;100027.56;;;21.46;32.05
18918;BME280;9591;52.742;13.650;2023-11-19T07:53:09;100036.16;;;21.80;31.71
18918;BME280;9591;52.742;13.650;2023-11-19T07:56:01;100030.56;;;20.80;33.23
18918;BME280;9591;52.742;13.650;2023-11-19T07:58:48;100023.19;;;22.04;31.57
18918;BME280;9591;52.742;13.650;2023-11-19T08:01:35;100027.59;;;21.55;32.25
18918;BME280;9591;52.742;13.650;2023-11-19T08:04:22;100021.06;;;21.68;31.96
18918;BME280;9591;52.742;13.650;2023-11-19T08:07:10;100026.78;;;21.74;31.76
18918;BME280;9591;52.742;13.650;2023-11-19T08:10:04;100023.13;;;21.85;31.61
18918;BME280;9591;52.742;13.650;2023-11-19T08:12:55;100028.59;;;22.14;31.47
18918;BME280;9591;52.742;13.650;2023-11-19T08:15:47;100030.16;;;22.16;31.22
18918;BME280;9591;52.742;13.650;2023-11-19T08:18:37;100038.25;;;22.16;31.24
18918;BME280;9591;52.742;13.650;2023-11-19T08:21:26;100025.06;;;22.23;31.28
18918;BME280;9591;52.742;13.650;2023-11-19T08:24:19;100010.72;;;22.42;30.95
18918;BME280;9591;52.742;13.650;2023-11-19T08:27:09;100028.31;;;22.27;31.36
18918;BME280;9591;52.742;13.650;2023-11-19T08:29:56;100025.06;;;22.23;31.36
18918;BME280;9591;52.742;13.650;2023-11-19T08:32:47;99998.66;;;22.36;31.14
18918;BME280;9591;52.742;13.650;2023-11-19T08:35:35;100006.00;;;22.53;31.07
18918;BME280;9591;52.742;13.650;2023-11-19T08:38:25;99957.34;;;22.36;31.08
18918;BME280;9591;52.742;13.650;2023-11-19T08:41:16;99993.63;;;22.70;31.30
18918;BME280;9591;52.742;13.650;2023-11-19T08:44:08;100006.69;;;22.94;30.71
18918;BME280;9591;52.742;13.650;2023-11-19T08:46:55;99989.63;;;22.94;30.76
18918;BME280;9591;52.742;13.650;2023-11-19T08:49:42;99969.34;;;23.27;30.59
18918;BME280;9591;52.742;13.650;2023-11-19T08:52:56;99958.50;;;22.99;30.75
18918;BME280;9591;52.742;13.650;2023-11-19T08:55:52;99963.13;;;23.44;30.60
18918;BME280;9591;52.742;13.650;2023-11-19T08:58:43;99975.88;;;23.61;30.54
18918;BME280;9591;52.742;13.650;2023-11-19T09:01:34;99969.56;;;23.70;30.42
18918;BME280;9591;52.742;13.650;2023-11-19T09:04:34;99970.56;;;23.69;30.56
18918;BME280;9591;52.742;13.650;2023-11-19T09:07:25;99964.00;;;23.72;30.45
18918;BME280;9591;52.742;13.650;2023-11-19T09:10:14;99954.06;;;23.90;30.54
18918;BME280;9591;52.742;13.650;2023-11-19T09:13:09;99973.09;;;23.16;31.81
18918;BME280;9591;52.742;13.650;2023-11-19T09:15:56;99986.69;;;23.24;31.50
18918;BME280;9591;52.742;13.650;2023-11-19T09:18:52;99992.81;;;23.26;31.86
18918;BME280;9591;52.742;13.650;2023-11-19T09:22:04;99994.53;;;22.32;32.68
18918;BME280;9591;52.742;13.650;2023-11-19T09:24:56;99983.22;;;23.04;31.97
18918;BME280;9591;52.742;13.650;2023-11-19T09:27:56;99992.19;;;22.76;32.59
18918;BME280;9591;52.742;13.650;2023-11-19T09:30:48;99977.94;;;22.37;33.12
18918;BME280;9591;52.742;13.650;2023-11-19T09:33:36;99945.88;;;23.54;31.33
18918;BME280;9591;52.742;13.650;2023-11-19T09:36:29;99969.00;;;23.02;32.11
18918;BME280;9591;52.742;13.650;2023-11-19T09:39:19;99952.22;;;22.52;32.95
18918;BME280;9591;52.742;13.650;2023-11-19T09:42:07;99943.94;;;22.53;32.95
18918;BME280;9591;52.742;13.650;2023-11-19T09:45:00;99932.66;;;23.51;31.45
18918;BME280;9591;52.742;13.650;2023-11-19T09:47:56;99901.38;;;23.94;30.80
18918;BME280;9591;52.742;13.650;2023-11-19T09:50:51;99941.66;;;23.42;32.16
18918;BME280;9591;52.742;13.650;2023-11-19T09:53:53;99948.75;;;23.43;32.45
18918;BME280;9591;52.742;13.650;2023-11-19T09:56:44;99950.53;;;22.32;34.48
18918;BME280;9591;52.742;13.650;2023-11-19T09:59:50;99933.94;;;23.57;33.21
18918;BME280;9591;52.742;13.650;2023-11-19T10:02:50;99930.00;;;22.87;33.66
18918;BME280;9591;52.742;13.650;2023-11-19T10:05:40;99922.13;;;24.47;31.40
18918;BME280;9591;52.742;13.650;2023-11-19T10:08:31;99912.88;;;24.32;31.74
18918;BME280;9591;52.742;13.650;2023-11-19T10:11:23;99921.84;;;24.58;31.94
18918;BME280;9591;52.742;13.650;2023-11-19T10:14:11;99913.41;;;24.87;31.61
18918;BME280;9591;52.742;13.650;2023-11-19T10:17:01;99909.13;;;25.02;31.52
18918;BME280;9591;52.742;13.650;2023-11-19T10:19:52;99911.84;;;24.76;32.10
18918;BME280;9591;52.742;13.650;2023-11-19T10:22:52;99907.47;;;25.09;31.84
18918;BME280;9591;52.742;13.650;2023-11-19T10:25:41;99915.66;;;25.68;31.46
18918;BME280;9591;52.742;13.650;2023-11-19T10:28:39;99909.94;;;25.95;31.12
18918;BME280;9591;52.742;13.650;2023-11-19T10:31:36;99909.50;;;24.81;33.00
18918;BME280;9591;52.742;13.650;2023-11-19T10:34:25;99907.09;;;25.46;32.05
18918;BME280;9591;52.742;13.650;2023-11-19T10:37:27;99893.81;;;25.77;32.04
18918;BME280;9591;52.742;13.650;2023-11-19T10:40:18;99897.38;;;25.86;31.57
18918;BME280;9591;52.742;13.650;2023-11-19T10:43:09;99888.19;;;26.76;30.95
18918;BME280;9591;52.742;13.650;2023-11-19T10:46:13;99887.19;;;25.72;32.44
18918;BME280;9591;52.742;13.650;2023-11-19T10:49:07;99893.66;;;26.11;32.36
18918;BME280;9591;52.742;13.650;2023-11-19T10:51:57;99881.97;;;26.43;31.71
18918;BME280;9591;52.742;13.650;2023-11-19T10:54:49;99889.25;;;26.02;32.80
18918;BME280;9591;52.742;13.650;2023-11-19T10:57:36;99884.50;;;26.45;32.23
18918;BME280;9591;52.742;13.650;2023-11-19T11:00:32;99887.63;;;26.89;31.72
18918;BME280;9591;52.742;13.650;2023-11-19T11:03:31;99882.47;;;26.06;33.23
18918;BME280;9591;52.742;13.650;2023-11-19T11:06:22;99882.91;;;24.77;36.13
18918;BME280;9591;52.742;13.650;2023-11-19T11:09:20;99884.50;;;26.12;33.69
18918;BME280;9591;52.742;13.650;2023-11-19T11:12:09;99884.66;;;26.60;33.26
18918;BME280;9591;52.742;13.650;2023-11-19T11:14:56;99879.75;;;26.23;33.41
18918;BME280;9591;52.742;13.650;2023-11-19T11:17:46;99877.91;;;26.39;33.21
18918;BME280;9591;52.742;13.650;2023-11-19T11:20:38;99877.06;;;25.32;35.20
18918;BME280;9591;52.742;13.650;2023-11-19T11:24:04;99869.38;;;26.59;32.99
18918;BME280;9591;52.742;13.650;2023-11-19T11:30:31;99860.63;;;26.88;33.04
18918;BME280;9591;52.742;13.650;2023-11-19T11:33:53;99862.31;;;26.33;34.45
18918;BME280;9591;52.742;13.650;2023-11-19T11:37:21;99860.28;;;26.99;33.36
18918;BME280;9591;52.742;13.650;2023-11-19T11:40:14;99856.97;;;27.20;32.94
18918;BME280;9591;52.742;13.650;2023-11-19T11:43:01;99850.13;;;27.63;32.48
18918;BME280;9591;52.742;13.650;2023-11-19T11:45:49;99852.09;;;27.92;32.17
18918;BME280;9591;52.742;13.650;2023-11-19T11:48:43;99844.41;;;28.18;31.84
18918;BME280;9591;52.742;13.650;2023-11-19T11:52:02;99868.59;;;27.36;32.64
18918;BME280;9591;52.742;13.650;2023-11-19T11:55:11;99849.38;;;26.52;34.17
18918;BME280;9591;52.742;13.650;2023-11-19T11:57:58;99851.25;;;27.06;33.77
18918;BME280;9591;52.742;13.650;2023-11-19T12:00:54;99855.63;;;26.68;34.09
18918;BME280;9591;52.742;13.650;2023-11-19T12:03:42;99849.72;;;27.04;33.85
18918;BME280;9591;52.742;13.650;2023-11-19T12:06:32;99841.00;;;26.77;34.23
18918;BME280;9591;52.742;13.650;2023-11-19T12:09:20;99849.47;;;27.22;33.59
18918;BME280;9591;52.742;13.650;2023-11-19T12:12:26;99843.78;;;26.53;34.45
18918;BME280;9591;52.742;13.650;2023-11-19T12:15:14;99851.09;;;26.36;34.40
18918;BME280;9591;52.742;13.650;2023-11-19T12:18:03;99852.44;;;27.43;32.92
18918;BME280;9591;52.742;13.650;2023-11-19T12:20:55;99854.06;;;27.21;33.49
18918;BME280;9591;52.742;13.650;2023-11-19T12:23:48;99857.16;;;26.71;34.69
18918;BME280;9591;52.742;13.650;2023-11-19T12:26:41;99852.59;;;27.41;33.35
18918;BME280;9591;52.742;13.650;2023-11-19T12:29:44;99852.19;;;27.53;32.97
18918;BME280;9591;52.742;13.650;2023-11-19T12:32:40;99847.19;;;26.94;34.04
18918;BME280;9591;52.742;13.650;2023-11-19T12:35:31;99858.59;;;27.68;33.15
18918;BME280;9591;52.742;13.650;2023-11-19T12:38:27;99849.78;;;27.66;32.85
18918;BME280;9591;52.742;13.650;2023-11-19T12:41:19;99847.25;;;27.79;32.98
18918;BME280;9591;52.742;13.650;2023-11-19T12:44:23;99854.00;;;27.37;32.95
18918;BME280;9591;52.742;13.650;2023-11-19T12:47:22;99850.59;;;25.84;35.81
18918;BME280;9591;52.742;13.650;2023-11-19T12:50:53;99859.84;;;27.80;32.14
18918;BME280;9591;52.742;13.650;2023-11-19T12:53:57;99856.13;;;27.19;33.21
18918;BME280;9591;52.742;13.650;2023-11-19T12:56:55;99858.06;;;26.94;33.47
18918;BME280;9591;52.742;13.650;2023-11-19T12:59:57;99854.66;;;27.70;32.41
18918;BME280;9591;52.742;13.650;2023-11-19T13:03:08;99848.59;;;27.29;32.67
18918;BME280;9591;52.742;13.650;2023-11-19T13:06:04;99845.16;;;27.35;32.88
18918;BME280;9591;52.742;13.650;2023-11-19T13:09:01;99842.34;;;27.21;32.99
18918;BME280;9591;52.742;13.650;2023-11-19T13:11:54;99844.22;;;27.20;32.88
18918;BME280;9591;52.742;13.650;2023-11-19T13:14:42;99835.47;;;26.30;33.76
18918;BME280;9591;52.742;13.650;2023-11-19T13:17:35;99842.88;;;27.16;32.98
18918;BME280;9591;52.742;13.650;2023-11-19T13:20:32;99842.38;;;27.97;31.94
18918;BME280;9591;52.742;13.650;2023-11-19T13:23:21;99847.78;;;27.52;32.58
18918;BME280;9591;52.742;13.650;2023-11-19T13:26:09;99845.75;;;27.23;32.93
18918;BME280;9591;52.742;13.650;2023-11-19T13:28:57;99840.94;;;27.64;32.17
18918;BME280;9591;52.742;13.650;2023-11-19T13:31:47;99849.53;;;27.45;32.64
18918;BME280;9591;52.742;13.650;2023-11-19T13:34:36;99839.00;;;27.41;32.46
18918;BME280;9591;52.742;13.650;2023-11-19T13:37:24;99846.22;;;27.26;32.74
18918;BME280;9591;52.742;13.650;2023-11-19T13:40:16;99847.13;;;26.71;33.52
18918;BME280;9591;52.742;13.650;2023-11-19T13:43:06;99798.06;;;27.89;31.19
18918;BME280;9591;52.742;13.650;2023-11-19T13:45:58;99834.97;;;26.90;33.04
18918;BME280;9591;52.742;13.650;2023-11-19T13:48:48;99837.88;;;27.67;32.10
18918;BME280;9591;52.742;13.650;2023-11-19T13:51:45;99852.34;;;27.28;32.48
18918;BME280;9591;52.742;13.650;2023-11-19T13:54:56;99852.94;;;27.07;32.88
18918;BME280;9591;52.742;13.650;2023-11-19T13:57:55;99847.16;;;27.72;31.46
18918;BME280;9591;52.742;13.650;2023-11-19T14:00:51;99852.59;;;27.41;31.80
18918;BME280;9591;52.742;13.650;2023-11-19T14:03:45;99854.03;;;27.29;32.19
18918;BME280;9591;52.742;13.650;2023-11-19T14:06:40;99852.13;;;27.69;31.79
18918;BME280;9591;52.742;13.650;2023-11-19T14:09:34;99850.75;;;27.73;31.55
18918;BME280;9591;52.742;13.650;2023-11-19T14:12:24;99856.22;;;27.65;31.78
18918;BME280;9591;52.742;13.650;2023-11-19T14:15:16;99861.50;;;27.58;31.55
18918;BME280;9591;52.742;13.650;2023-11-19T14:18:08;99862.69;;;27.64;31.49
18918;BME280;9591;52.742;13.650;2023-11-19T14:20:59;99861.03;;;27.24;32.10
18918;BME280;9591;52.742;13.650;2023-11-19T14:23:49;99874.88;;;27.37;32.16
18918;BME280;9591;52.742;13.650;2023-11-19T14:26:38;99865.41;;;27.64;31.46
18918;BME280;9591;52.742;13.650;2023-11-19T14:29:34;99876.84;;;27.51;31.81
18918;BME280;9591;52.742;13.650;2023-11-19T14:32:22;99869.97;;;27.32;31.61
18918;BME280;9591;52.742;13.650;2023-11-19T14:35:16;99870.22;;;27.54;31.66
18918;BME280;9591;52.742;13.650;2023-11-19T14:38:36;99874.19;;;27.43;31.87
18918;BME280;9591;52.742;13.650;2023-11-19T14:41:27;99868.47;;;27.30;31.88
18918;BME280;9591;52.742;13.650;2023-11-19T14:44:14;99869.78;;;27.03;32.53
18918;BME280;9591;52.742;13.650;2023-11-19T14:47:05;99870.78;;;26.47;32.96
18918;BME280;9591;52.742;13.650;2023-11-19T14:49:57;99873.13;;;27.13;32.29
18918;BME280;9591;52.742;13.650;2023-11-19T14:52:45;99868.69;;;27.20;31.87
18918;BME280;9591;52.742;13.650;2023-11-19T14:55:33;99876.97;;;27.66;31.23
18918;BME280;9591;52.742;13.650;2023-11-19T14:58:22;99870.75;;;27.49;31.75
18918;BME280;9591;52.742;13.650;2023-11-19T15:01:12;99874.34;;;27.41;31.35
18918;BME280;9591;52.742;13.650;2023-11-19T15:04:02;99873.13;;;27.75;31.31
18918;BME280;9591;52.742;13.650;2023-11-19T15:06:51;99888.97;;;27.40;31.61
18918;BME280;9591;52.742;13.650;2023-11-19T15:09:41;99885.69;;;27.53;31.43
18918;BME280;9591;52.742;13.650;2023-11-19T15:12:33;99889.28;;;27.46;31.21
18918;BME280;9591;52.742;13.650;2023-11-19T15:15:21;99882.88;;;27.38;31.33